Flight Track Log - Related Links

Times and Time Zones

All times are in EDT time to prevent confusion due to time zone crossing. See the N22VK flight status page for this flight to view local times or setup timezone preferences in your user account.

Time Position Orientation Groundspeed Altitude Reporting Facility
EDT Latitude Longitude Course Direction KTS MPH feet Rate Location/Type
Wed 06:32:42 PM 27.1617 -80.1997 329° Northwest 149 171 1,700  Level Miami Center
Wed 06:33:42 PM 27.1394 -80.2528 245° Southwest 219 252 3,700 1,650 Climbing Miami Center
Wed 06:34:42 PM 27.1583 -80.3350 284° West 374 430 5,000 1,800 Climbing Miami Center
Wed 06:35:42 PM 27.1839 -80.4081 291° West 323 372 7,300 2,100 Climbing Miami Center
Wed 06:36:42 PM 27.2214 -80.4911 297° West 295 339 9,200 2,150 Climbing Miami Center
Wed 06:37:42 PM 27.2908 -80.5517 322° Northwest 279 321 11,600 2,100 Climbing Miami Center
Wed 06:38:00 PM 27.4129 -80.6419 329° Northwest  Level FlightAware Approximate
Wed 06:38:42 PM 27.3767 -80.5450 North 270 311 13,400  Level Miami Center
Wed 06:39:42 PM 27.4689 -80.5317 North 309 356 15,400 1,900 Climbing Miami Center
Wed 06:40:42 PM 27.5508 -80.5061 15° North 333 383 17,200 1,550 Climbing Miami Center
Wed 06:41:42 PM 27.6433 -80.4808 14° North 338 389 18,500 1,500 Climbing Miami Center
Wed 06:42:42 PM 27.7378 -80.4581 12° North 338 389 20,200 1,550 Climbing Miami Center
Wed 06:43:42 PM 27.8364 -80.4378 10° North 344 396 21,600 1,300 Climbing Miami Center
Wed 06:44:42 PM 27.9394 -80.4106 13° North 363 418 22,800 1,050 Climbing Miami Center
Wed 06:45:42 PM 28.0425 -80.3831 13° North 377 434 23,700 950 Climbing Miami Center
Wed 06:46:42 PM 28.1597 -80.3633 North 377 434 24,700 950 Climbing Miami Center
Wed 06:47:42 PM 28.2728 -80.3525 North 383 441 25,600 950 Climbing Miami Center
Wed 06:48:42 PM 28.3731 -80.3439 North 389 448 26,600 1,000 Climbing Miami Center
Wed 06:49:42 PM 28.4817 -80.3378 North 394 453 27,600 994 Climbing Miami Center
Wed 06:51:25 PM 28.6856 -80.3178 North 403 464 29,300 994 Climbing Jacksonville Center
Wed 06:52:25 PM 28.7981 -80.3056 North 403 464 30,300 857 Climbing Jacksonville Center
Wed 06:53:24 PM 28.9067 -80.3169 355° North 397 457 31,000 350 Climbing Jacksonville Center
Wed 06:54:25 PM 29.0022 -80.3928 325° Northwest 392 451 31,000  Level Jacksonville Center
Wed 06:55:25 PM 29.0833 -80.4928 313° West 408 470 31,000  Level Jacksonville Center
Wed 06:56:24 PM 29.1808 -80.5808 322° Northwest 422 486 31,000  Level Jacksonville Center
Wed 06:57:25 PM 29.2844 -80.6522 329° Northwest 440 506 31,000 99 Level Jacksonville Center
Wed 06:58:25 PM 29.3817 -80.7239 327° Northwest 446 513 31,200 650 Climbing Jacksonville Center
Wed 06:59:25 PM 29.4769 -80.7956 327° Northwest 438 504 32,300 900 Climbing Jacksonville Center
Wed 07:00:25 PM 29.5761 -80.8700 327° Northwest 424 488 33,000 350 Climbing Jacksonville Center
Wed 07:01:25 PM 29.6775 -80.9419 328° Northwest 424 488 33,000  Level Jacksonville Center
Wed 07:02:25 PM 29.7789 -81.0167 327° Northwest 424 488 33,000  Level Jacksonville Center
Wed 07:03:25 PM 29.8639 -81.1178 314° West 429 494 33,000 200 Level Jacksonville Center
Wed 07:04:25 PM 29.9467 -81.2219 313° West 429 494 33,400 750 Climbing Jacksonville Center
Wed 07:05:25 PM 30.0272 -81.3211 313° West 429 494 34,500 1,150 Climbing Jacksonville Center
Wed 07:06:25 PM 30.1033 -81.4158 313° West 423 487 35,700 1,150 Climbing Jacksonville Center
Wed 07:07:25 PM 30.1756 -81.5133 311° West 413 475 36,800 650 Climbing Jacksonville Center
Wed 07:08:25 PM 30.2475 -81.6086 311° West 402 463 37,000 100 Climbing Jacksonville Center
Wed 07:09:25 PM 30.3281 -81.7231 309° West 402 463 37,000  Level Jacksonville Center
Wed 07:10:25 PM 30.4042 -81.8281 310° West 417 480 37,000  Level Jacksonville Center
Wed 07:11:25 PM 30.4781 -81.9356 309° West 422 486 37,000  Level Jacksonville Center
Wed 07:12:24 PM 30.5539 -82.0433 309° West 422 486 37,000  Level Jacksonville Center
Wed 07:13:25 PM 30.6361 -82.1633 309° West 450 518 37,000  Level Jacksonville Center
Wed 07:14:24 PM 30.7139 -82.2692 311° West 445 512 37,000  Level Jacksonville Center
Wed 07:15:24 PM 30.7958 -82.3775 311° West 440 506 37,000  Level Jacksonville Center
Wed 07:16:24 PM 30.9025 -82.4422 333° Northwest 425 489 37,000 -50 Level Jacksonville Center
Wed 07:17:24 PM 31.0258 -82.4731 348° North 433 498 36,900  Descending Jacksonville Center
Wed 07:18:24 PM 31.1469 -82.5067 347° North 438 504 37,000 50 Climbing Jacksonville Center
Wed 07:19:24 PM 31.2703 -82.5353 349° North 443 510 37,000  Level Jacksonville Center
Wed 07:20:25 PM 31.3811 -82.5544 352° North 443 510 37,000 -150 Level Jacksonville Center
Wed 07:21:24 PM 31.5064 -82.5831 349° North 453 521 36,700 -857 Descending Jacksonville Center
Wed 07:22:24 PM 31.6358 -82.6144 348° North 459 528 35,300 -895 Descending Jacksonville Center
Wed 07:25:32 PM 32.0483 -82.7108 349° North 472 543 33,000 -968 Descending Atlanta Center
Wed 07:26:32 PM 32.1803 -82.7408 349° North 472 543 31,300 -1,800 Descending Atlanta Center
Wed 07:27:32 PM 32.3078 -82.7708 349° North 472 543 29,400 -1,800 Descending Atlanta Center
Wed 07:28:32 PM 32.4375 -82.8008 349° North 467 537 27,700 -1,200 Descending Atlanta Center
Wed 07:29:32 PM 32.5422 -82.8314 346° North 458 527 27,000 -600 Descending Atlanta Center
Wed 07:30:32 PM 32.6431 -82.9114 326° Northwest 431 496 26,500 -1,050 Descending Atlanta Center
Wed 07:31:32 PM 32.7400 -83.0264 315° West 436 502 24,900 -1,300 Descending Atlanta Center
Wed 07:32:32 PM 32.7911 -83.1344 299° West 417 480 23,900 -950 Descending Atlanta Center
Wed 07:33:32 PM 32.8358 -83.2478 295° West 382 440 23,000 -450 Descending Atlanta Center
Wed 07:34:32 PM 32.8822 -83.3511 298° West 370 426 23,000 -600 Level Atlanta Center
Wed 07:35:32 PM 32.9619 -83.4247 322° Northwest 355 409 21,800 -1,600 Descending Atlanta Center
Wed 07:36:32 PM 33.0519 -83.4761 334° Northwest 355 409 19,800 -1,900 Descending Atlanta Center
Wed 07:37:32 PM 33.1314 -83.5278 331° Northwest 335 386 18,000 -1,950 Descending Atlanta Center
Wed 07:38:32 PM 33.2111 -83.5672 338° Northwest 312 359 15,900 -2,300 Descending Atlanta Center
Wed 07:39:32 PM 33.2864 -83.6089 335° Northwest 299 344 13,400 -2,280 Descending Atlanta Center
Wed 07:40:12 PM 33.3333 -83.6333 336° Northwest 288 331 12,100 -1,440 Descending Atlanta TRACON
Wed 07:41:12 PM 33.4000 -83.6833 328° Northwest 289 333 11,000 -1,150 Descending Atlanta TRACON
Wed 07:42:12 PM 33.4667 -83.7333 328° Northwest 282 325 9,800 -1,300 Descending Atlanta TRACON
Wed 07:43:12 PM 33.5333 -83.7833 328° Northwest 285 328 8,400 -950 Descending Atlanta TRACON
Wed 07:44:12 PM 33.6000 -83.8167 337° Northwest 275 316 7,900 -1,000 Descending Atlanta TRACON
Wed 07:45:12 PM 33.6833 -83.8333 351° North 275 316 6,400 -950 Descending Atlanta TRACON
Wed 07:46:12 PM 33.7500 -83.8500 348° North 257 296 6,000 -200 Descending Atlanta TRACON
Wed 07:47:12 PM 33.8167 -83.8667 348° North 261 300 6,000  Level Atlanta TRACON
Wed 07:48:12 PM 33.8833 -83.9000 337° Northwest 263 303 6,000  Level Atlanta TRACON
Wed 07:49:12 PM 33.9333 -83.9667 312° West 260 299 6,000  Level Atlanta TRACON
Wed 07:50:12 PM 33.9500 -84.0500 284° West 245 282 6,000  Level Atlanta TRACON
Wed 07:51:12 PM 33.9667 -84.1167 287° West 235 270 6,000  Level Atlanta TRACON
Wed 07:52:12 PM 34.0000 -84.2000 296° West 232 267 6,000  Level Atlanta TRACON
Wed 07:53:06 PM 34.0167 -84.2500 292° West 235 270 6,000 -211 Level Atlanta TRACON
Wed 07:54:06 PM 34.0333 -84.3333 284° West 246 283 5,600 -810 Descending Atlanta TRACON
Wed 07:55:12 PM 34.0333 -84.4333 270° West 243 280 4,300 -1,238 Descending Atlanta TRACON
Wed 07:56:12 PM 34.0333 -84.5000 270° West 225 259 3,000 -850 Descending Atlanta TRACON
Wed 07:57:12 PM 34.0500 -84.5667 287° West 188 216 2,600 -300 Descending Atlanta TRACON
Wed 07:58:12 PM 34.0500 -84.6333 270° West 168 193 2,400 -400 Descending Atlanta TRACON
Wed 07:59:12 PM 34.0167 -84.6500 203° Southwest 149 171 1,800 -286 Descending Atlanta TRACON
Wed 08:00:18 PM 34.0000 -84.6500 180° South 127 146 1,800  Level Atlanta TRACON

Login

Don't have an account? Register now (free) for customized features, flight alerts, and more!